sensor_id;sensor_type;location;lat;lon;timestamp;P1;durP1;ratioP1;P2;durP2;ratioP2
3046;SDS011;1533;44.816;20.420;2022-09-16T06:22:52;5.63;;;3.50;;
3046;SDS011;1533;44.816;20.420;2022-09-16T06:25:20;5.77;;;3.30;;
3046;SDS011;1533;44.816;20.420;2022-09-16T06:27:53;8.40;;;4.07;;
3046;SDS011;1533;44.816;20.420;2022-09-16T06:30:22;5.20;;;3.70;;
3046;SDS011;1533;44.816;20.420;2022-09-16T06:32:50;6.27;;;2.70;;
3046;SDS011;1533;44.816;20.420;2022-09-16T06:38:07;8.37;;;2.50;;
3046;SDS011;1533;44.816;20.420;2022-09-16T06:40:43;4.10;;;2.50;;
3046;SDS011;1533;44.816;20.420;2022-09-16T06:43:09;4.73;;;2.40;;
3046;SDS011;1533;44.816;20.420;2022-09-16T06:45:34;4.43;;;2.40;;
3046;SDS011;1533;44.816;20.420;2022-09-16T06:48:09;2.43;;;1.70;;
3046;SDS011;1533;44.816;20.420;2022-09-16T06:50:34;4.03;;;2.13;;
3046;SDS011;1533;44.816;20.420;2022-09-16T06:53:00;3.63;;;2.27;;
3046;SDS011;1533;44.816;20.420;2022-09-16T06:55:28;3.50;;;2.30;;
3046;SDS011;1533;44.816;20.420;2022-09-16T06:57:55;3.87;;;2.30;;
3046;SDS011;1533;44.816;20.420;2022-09-16T07:00:20;5.00;;;2.83;;
3046;SDS011;1533;44.816;20.420;2022-09-16T07:02:48;4.03;;;1.70;;
3046;SDS011;1533;44.816;20.420;2022-09-16T07:05:16;3.37;;;1.60;;
3046;SDS011;1533;44.816;20.420;2022-09-16T07:07:44;3.83;;;2.10;;
3046;SDS011;1533;44.816;20.420;2022-09-16T07:12:10;5.67;;;2.17;;
3046;SDS011;1533;44.816;20.420;2022-09-16T07:14:38;3.83;;;2.67;;
3046;SDS011;1533;44.816;20.420;2022-09-16T07:17:06;4.07;;;2.40;;
3046;SDS011;1533;44.816;20.420;2022-09-16T07:19:42;5.87;;;2.43;;
3046;SDS011;1533;44.816;20.420;2022-09-16T07:22:08;4.53;;;2.47;;
3046;SDS011;1533;44.816;20.420;2022-09-16T07:24:35;5.50;;;2.10;;
3046;SDS011;1533;44.816;20.420;2022-09-16T07:27:04;3.37;;;2.10;;
3046;SDS011;1533;44.816;20.420;2022-09-16T07:29:30;5.83;;;2.20;;
3046;SDS011;1533;44.816;20.420;2022-09-16T07:32:32;5.63;;;2.30;;
3046;SDS011;1533;44.816;20.420;2022-09-16T07:35:12;5.37;;;2.90;;
3046;SDS011;1533;44.816;20.420;2022-09-16T07:37:38;3.80;;;2.90;;
3046;SDS011;1533;44.816;20.420;2022-09-16T07:40:03;4.13;;;2.33;;
3046;SDS011;1533;44.816;20.420;2022-09-16T07:42:34;4.30;;;2.50;;
3046;SDS011;1533;44.816;20.420;2022-09-16T07:45:00;6.53;;;2.53;;
3046;SDS011;1533;44.816;20.420;2022-09-16T07:47:26;7.20;;;2.73;;
3046;SDS011;1533;44.816;20.420;2022-09-16T07:53:25;5.00;;;2.50;;
3046;SDS011;1533;44.816;20.420;2022-09-16T07:56:15;4.40;;;2.83;;
3046;SDS011;1533;44.816;20.420;2022-09-16T07:58:55;2.50;;;1.80;;
3046;SDS011;1533;44.816;20.420;2022-09-16T08:12:39;4.77;;;2.00;;
3046;SDS011;1533;44.816;20.420;2022-09-16T08:15:25;3.90;;;2.13;;
3046;SDS011;1533;44.816;20.420;2022-09-16T08:24:33;3.50;;;1.40;;
3046;SDS011;1533;44.816;20.420;2022-09-16T08:27:33;2.60;;;1.50;;
3046;SDS011;1533;44.816;20.420;2022-09-16T08:33:25;3.10;;;1.67;;
3046;SDS011;1533;44.816;20.420;2022-09-16T08:39:10;4.10;;;2.50;;
3046;SDS011;1533;44.816;20.420;2022-09-16T08:51:39;3.17;;;2.30;;
3046;SDS011;1533;44.816;20.420;2022-09-16T08:54:23;4.57;;;2.20;;
3046;SDS011;1533;44.816;20.420;2022-09-16T08:57:20;3.40;;;2.50;;
3046;SDS011;1533;44.816;20.420;2022-09-16T09:00:15;4.77;;;3.10;;
3046;SDS011;1533;44.816;20.420;2022-09-16T09:18:48;3.00;;;1.90;;
3046;SDS011;1533;44.816;20.420;2022-09-16T09:27:38;4.00;;;2.43;;
3046;SDS011;1533;44.816;20.420;2022-09-16T09:41:32;4.40;;;2.60;;
3046;SDS011;1533;44.816;20.420;2022-09-16T09:51:44;4.07;;;2.40;;
3046;SDS011;1533;44.816;20.420;2022-09-16T10:10:30;6.10;;;3.03;;
3046;SDS011;1533;44.816;20.420;2022-09-16T10:16:46;3.70;;;2.20;;
3046;SDS011;1533;44.816;20.420;2022-09-16T10:26:06;7.70;;;2.90;;
3046;SDS011;1533;44.816;20.420;2022-09-16T10:32:04;5.93;;;3.17;;
3046;SDS011;1533;44.816;20.420;2022-09-16T10:34:55;5.00;;;2.37;;
3046;SDS011;1533;44.816;20.420;2022-09-16T10:40:36;8.93;;;2.00;;
3046;SDS011;1533;44.816;20.420;2022-09-16T10:47:14;4.93;;;2.77;;
3046;SDS011;1533;44.816;20.420;2022-09-16T10:50:19;3.80;;;3.40;;
3046;SDS011;1533;44.816;20.420;2022-09-16T13:54:18;7.50;;;4.93;;
3046;SDS011;1533;44.816;20.420;2022-09-16T13:57:00;8.90;;;6.20;;
3046;SDS011;1533;44.816;20.420;2022-09-16T13:59:37;4.50;;;3.87;;
3046;SDS011;1533;44.816;20.420;2022-09-16T14:02:40;5.50;;;4.97;;
3046;SDS011;1533;44.816;20.420;2022-09-16T14:11:00;4.40;;;3.93;;
3046;SDS011;1533;44.816;20.420;2022-09-16T14:13:45;5.33;;;4.33;;
3046;SDS011;1533;44.816;20.420;2022-09-16T14:16:25;5.90;;;4.60;;
3046;SDS011;1533;44.816;20.420;2022-09-16T14:19:00;6.57;;;5.47;;
3046;SDS011;1533;44.816;20.420;2022-09-16T14:21:39;7.40;;;4.70;;
3046;SDS011;1533;44.816;20.420;2022-09-16T14:24:15;6.03;;;4.23;;
3046;SDS011;1533;44.816;20.420;2022-09-16T14:26:49;6.53;;;4.30;;
3046;SDS011;1533;44.816;20.420;2022-09-16T14:29:16;8.50;;;5.70;;
3046;SDS011;1533;44.816;20.420;2022-09-16T14:31:45;5.97;;;4.80;;
3046;SDS011;1533;44.816;20.420;2022-09-16T14:37:22;8.23;;;4.83;;
3046;SDS011;1533;44.816;20.420;2022-09-16T14:39:52;10.40;;;6.47;;
3046;SDS011;1533;44.816;20.420;2022-09-16T14:43:06;7.10;;;6.07;;
3046;SDS011;1533;44.816;20.420;2022-09-16T14:58:30;7.83;;;6.20;;
3046;SDS011;1533;44.816;20.420;2022-09-16T15:04:48;7.93;;;6.33;;
3046;SDS011;1533;44.816;20.420;2022-09-16T15:07:57;6.90;;;6.00;;
3046;SDS011;1533;44.816;20.420;2022-09-16T15:10:51;6.97;;;5.97;;
3046;SDS011;1533;44.816;20.420;2022-09-16T15:13:36;8.60;;;6.40;;
3046;SDS011;1533;44.816;20.420;2022-09-16T15:18:57;8.60;;;6.13;;
3046;SDS011;1533;44.816;20.420;2022-09-16T15:24:04;6.40;;;5.07;;
3046;SDS011;1533;44.816;20.420;2022-09-16T15:26:50;6.10;;;5.53;;
3046;SDS011;1533;44.816;20.420;2022-09-16T15:29:28;6.97;;;5.80;;
3046;SDS011;1533;44.816;20.420;2022-09-16T15:32:22;6.13;;;5.33;;
3046;SDS011;1533;44.816;20.420;2022-09-16T15:35:21;6.67;;;4.77;;
3046;SDS011;1533;44.816;20.420;2022-09-16T15:38:20;6.47;;;5.40;;
3046;SDS011;1533;44.816;20.420;2022-09-16T15:41:01;6.20;;;4.57;;
3046;SDS011;1533;44.816;20.420;2022-09-16T15:43:43;5.20;;;4.43;;
3046;SDS011;1533;44.816;20.420;2022-09-16T15:46:13;5.80;;;5.20;;
3046;SDS011;1533;44.816;20.420;2022-09-16T15:49:24;5.57;;;4.43;;
3046;SDS011;1533;44.816;20.420;2022-09-16T15:52:04;6.10;;;5.30;;
3046;SDS011;1533;44.816;20.420;2022-09-16T15:54:51;6.13;;;4.93;;
3046;SDS011;1533;44.816;20.420;2022-09-16T16:00:03;5.73;;;5.10;;
3046;SDS011;1533;44.816;20.420;2022-09-16T16:02:49;5.60;;;5.10;;
3046;SDS011;1533;44.816;20.420;2022-09-16T16:05:29;6.33;;;5.10;;
3046;SDS011;1533;44.816;20.420;2022-09-16T16:08:52;7.30;;;5.37;;
3046;SDS011;1533;44.816;20.420;2022-09-16T16:24:18;5.63;;;5.07;;
3046;SDS011;1533;44.816;20.420;2022-09-16T16:27:04;9.80;;;6.90;;
3046;SDS011;1533;44.816;20.420;2022-09-16T16:33:03;10.67;;;6.60;;
3046;SDS011;1533;44.816;20.420;2022-09-16T16:39:07;9.93;;;6.97;;
3046;SDS011;1533;44.816;20.420;2022-09-16T16:42:16;12.77;;;8.17;;
3046;SDS011;1533;44.816;20.420;2022-09-16T16:48:33;10.53;;;6.63;;
3046;SDS011;1533;44.816;20.420;2022-09-16T16:51:41;7.90;;;5.27;;
3046;SDS011;1533;44.816;20.420;2022-09-16T16:54:41;5.67;;;5.10;;
3046;SDS011;1533;44.816;20.420;2022-09-16T16:57:20;6.23;;;5.03;;
3046;SDS011;1533;44.816;20.420;2022-09-16T17:03:13;8.23;;;5.20;;
3046;SDS011;1533;44.816;20.420;2022-09-16T17:05:54;8.90;;;5.30;;
3046;SDS011;1533;44.816;20.420;2022-09-16T17:12:10;5.97;;;5.37;;
3046;SDS011;1533;44.816;20.420;2022-09-16T17:14:49;6.77;;;6.00;;
3046;SDS011;1533;44.816;20.420;2022-09-16T17:17:35;6.97;;;5.73;;
3046;SDS011;1533;44.816;20.420;2022-09-16T17:23:52;6.30;;;5.70;;
3046;SDS011;1533;44.816;20.420;2022-09-16T17:26:27;7.30;;;6.50;;
3046;SDS011;1533;44.816;20.420;2022-09-16T17:29:15;7.13;;;6.10;;
3046;SDS011;1533;44.816;20.420;2022-09-16T17:34:52;9.67;;;6.77;;
3046;SDS011;1533;44.816;20.420;2022-09-16T17:37:58;7.70;;;6.83;;
3046;SDS011;1533;44.816;20.420;2022-09-16T17:47:33;7.87;;;7.17;;
3046;SDS011;1533;44.816;20.420;2022-09-16T17:50:37;8.70;;;7.80;;
3046;SDS011;1533;44.816;20.420;2022-09-16T17:53:29;8.63;;;7.50;;
3046;SDS011;1533;44.816;20.420;2022-09-16T17:59:48;8.33;;;7.53;;
3046;SDS011;1533;44.816;20.420;2022-09-16T18:06:04;7.47;;;6.77;;
3046;SDS011;1533;44.816;20.420;2022-09-16T18:09:00;6.53;;;5.80;;
3046;SDS011;1533;44.816;20.420;2022-09-16T18:11:42;6.17;;;5.40;;
3046;SDS011;1533;44.816;20.420;2022-09-16T18:14:46;7.50;;;5.03;;
3046;SDS011;1533;44.816;20.420;2022-09-16T18:20:44;4.67;;;3.97;;
3046;SDS011;1533;44.816;20.420;2022-09-16T18:23:26;5.50;;;4.60;;
3046;SDS011;1533;44.816;20.420;2022-09-16T18:26:17;6.03;;;4.50;;
3046;SDS011;1533;44.816;20.420;2022-09-16T18:31:47;4.80;;;4.30;;
3046;SDS011;1533;44.816;20.420;2022-09-16T18:34:31;5.70;;;5.13;;
3046;SDS011;1533;44.816;20.420;2022-09-16T18:40:28;6.43;;;5.83;;
3046;SDS011;1533;44.816;20.420;2022-09-16T18:43:15;6.23;;;5.20;;
3046;SDS011;1533;44.816;20.420;2022-09-16T21:23:40;13.23;;;10.10;;
3046;SDS011;1533;44.816;20.420;2022-09-16T21:26:18;14.53;;;9.90;;
3046;SDS011;1533;44.816;20.420;2022-09-16T21:29:21;12.80;;;10.87;;
3046;SDS011;1533;44.816;20.420;2022-09-16T21:31:52;10.70;;;9.60;;
3046;SDS011;1533;44.816;20.420;2022-09-16T21:35:01;12.93;;;10.20;;
3046;SDS011;1533;44.816;20.420;2022-09-16T21:44:39;10.40;;;9.20;;
3046;SDS011;1533;44.816;20.420;2022-09-16T21:47:23;12.70;;;9.77;;
3046;SDS011;1533;44.816;20.420;2022-09-16T21:50:06;10.87;;;9.77;;
3046;SDS011;1533;44.816;20.420;2022-09-16T21:59:28;15.93;;;10.50;;
3046;SDS011;1533;44.816;20.420;2022-09-16T22:02:16;13.40;;;10.93;;
3046;SDS011;1533;44.816;20.420;2022-09-16T22:05:02;16.17;;;10.73;;
3046;SDS011;1533;44.816;20.420;2022-09-16T22:11:12;12.00;;;10.37;;
3046;SDS011;1533;44.816;20.420;2022-09-16T22:14:16;13.27;;;10.87;;
3046;SDS011;1533;44.816;20.420;2022-09-16T22:17:11;12.33;;;11.03;;
3046;SDS011;1533;44.816;20.420;2022-09-16T22:20:05;12.33;;;10.23;;
3046;SDS011;1533;44.816;20.420;2022-09-16T22:22:44;17.60;;;11.37;;
3046;SDS011;1533;44.816;20.420;2022-09-16T22:25:57;14.73;;;10.43;;
3046;SDS011;1533;44.816;20.420;2022-09-16T22:31:46;10.33;;;9.33;;
3046;SDS011;1533;44.816;20.420;2022-09-16T22:37:31;11.07;;;9.50;;
3046;SDS011;1533;44.816;20.420;2022-09-16T22:40:41;11.97;;;10.33;;
3046;SDS011;1533;44.816;20.420;2022-09-16T22:46:23;13.87;;;10.83;;
3046;SDS011;1533;44.816;20.420;2022-09-16T22:49:19;12.60;;;10.53;;
3046;SDS011;1533;44.816;20.420;2022-09-16T22:52:08;12.43;;;11.13;;
3046;SDS011;1533;44.816;20.420;2022-09-16T22:54:44;14.27;;;11.20;;
3046;SDS011;1533;44.816;20.420;2022-09-16T22:57:42;14.57;;;10.87;;
3046;SDS011;1533;44.816;20.420;2022-09-16T23:00:43;12.50;;;10.80;;
3046;SDS011;1533;44.816;20.420;2022-09-16T23:03:37;16.17;;;11.40;;
3046;SDS011;1533;44.816;20.420;2022-09-16T23:06:28;13.30;;;11.57;;
3046;SDS011;1533;44.816;20.420;2022-09-16T23:09:36;16.67;;;11.53;;
3046;SDS011;1533;44.816;20.420;2022-09-16T23:12:09;14.57;;;10.63;;
3046;SDS011;1533;44.816;20.420;2022-09-16T23:18:58;12.10;;;10.90;;
3046;SDS011;1533;44.816;20.420;2022-09-16T23:25:33;14.10;;;12.60;;
3046;SDS011;1533;44.816;20.420;2022-09-16T23:28:13;14.90;;;12.30;;
3046;SDS011;1533;44.816;20.420;2022-09-16T23:31:08;12.10;;;10.80;;
3046;SDS011;1533;44.816;20.420;2022-09-16T23:39:53;14.60;;;11.93;;
3046;SDS011;1533;44.816;20.420;2022-09-16T23:42:24;13.73;;;11.60;;
3046;SDS011;1533;44.816;20.420;2022-09-16T23:45:05;12.90;;;11.50;;
3046;SDS011;1533;44.816;20.420;2022-09-16T23:47:47;14.20;;;12.00;;
3046;SDS011;1533;44.816;20.420;2022-09-16T23:50:28;14.73;;;11.40;;
3046;SDS011;1533;44.816;20.420;2022-09-16T23:52:56;16.40;;;11.20;;
3046;SDS011;1533;44.816;20.420;2022-09-16T23:55:23;13.53;;;11.73;;
3046;SDS011;1533;44.816;20.420;2022-09-16T23:58:01;12.90;;;11.23;;
